Time;durP1;ratioP1;P1;durP2;ratioP2;P2;SDS_P1;SDS_P2;PMS_P1;PMS_P2;Temp;Humidity;BMP_temperature;BMP_pressure;BME280_temperature;BME280_humidity;BME280_pressure;Samples;Min_cycle;Max_cycle;Signal;HPM_P1;HPM_P2
2023/03/29 00:00:58;;;;;;;6.47;4.88;;;7.80;99.90;;;;;;5034073;28;20390;-49
2023/03/29 00:03:25;;;;;;;4.53;3.30;;;7.80;99.90;;;;;;5032704;28;20028;-49
2023/03/29 00:05:56;;;;;;;2.00;1.80;;;7.90;99.90;;;;;;5016323;28;20135;-48
2023/03/29 00:08:24;;;;;;;2.25;1.90;;;7.90;99.90;;;;;;5034488;28;20033;-51
2023/03/29 00:10:50;;;;;;;4.28;1.90;;;7.90;99.90;;;;;;5016338;28;20393;-51
2023/03/29 00:13:16;;;;;;;2.25;1.45;;;7.90;99.90;;;;;;5033892;28;20021;-53
2023/03/29 00:15:42;;;;;;;2.70;1.77;;;7.80;99.90;;;;;;5033769;28;20044;-51
2023/03/29 00:18:08;;;;;;;5.32;1.73;;;7.80;99.90;;;;;;5033895;28;20026;-50
2023/03/29 00:20:33;;;;;;;4.13;2.08;;;7.80;99.90;;;;;;5016048;28;20492;-51
2023/03/29 00:22:59;;;;;;;1.90;1.80;;;7.80;99.90;;;;;;5034091;28;20033;-51
2023/03/29 00:25:26;;;;;;;1.55;1.27;;;7.80;99.90;;;;;;5033944;28;20049;-55
2023/03/29 00:27:51;;;;;;;1.75;1.65;;;7.70;99.90;;;;;;5034287;28;20080;-51
2023/03/29 00:30:17;;;;;;;1.70;1.60;;;7.70;99.90;;;;;;5033640;28;20108;-51
2023/03/29 00:32:42;;;;;;;1.95;1.55;;;7.60;99.90;;;;;;5033976;28;20025;-51
2023/03/29 00:35:09;;;;;;;2.35;1.65;;;7.70;99.90;;;;;;5033542;28;20056;-52
2023/03/29 00:37:35;;;;;;;1.67;1.58;;;7.70;99.90;;;;;;5033507;28;20022;-53
2023/03/29 00:40:01;;;;;;;2.60;2.08;;;7.70;99.90;;;;;;5033559;28;20504;-53
2023/03/29 00:42:26;;;;;;;2.45;1.50;;;7.70;99.90;;;;;;5033098;28;20022;-50
2023/03/29 00:45:04;;;;;;;3.00;1.98;;;7.60;99.90;;;;;;5015388;28;20470;-53
2023/03/29 00:47:46;;;;;;;4.13;2.50;;;7.60;99.90;;;;;;5033267;28;20021;-54
2023/03/29 00:50:18;;;;;;;2.60;1.90;;;7.60;99.90;;;;;;5033293;28;20120;-53
2023/03/29 00:52:50;;;;;;;2.83;1.90;;;7.50;99.90;;;;;;5033124;28;20022;-52
2023/03/29 00:55:22;;;;;;;3.00;2.15;;;7.50;99.90;;;;;;5032903;28;20416;-53
2023/03/29 00:57:51;;;;;;;5.03;2.15;;;7.50;99.90;;;;;;5032633;28;20460;-49
2023/03/29 01:00:19;;;;;;;3.13;2.33;;;7.50;99.90;;;;;;5033300;28;20400;-55
2023/03/29 01:02:49;;;;;;;3.53;1.70;;;7.50;99.90;;;;;;5033089;28;20033;-55
2023/03/29 01:05:21;;;;;;;7.53;2.33;;;7.50;99.90;;;;;;5032970;28;20405;-49
2023/03/29 01:07:56;;;;;;;2.67;2.30;;;7.60;99.90;;;;;;5032927;28;20032;-52
2023/03/29 01:10:42;;;;;;;4.47;2.13;;;7.60;99.90;;;;;;5032859;28;20025;-52
2023/03/29 01:13:11;;;;;;;3.72;2.50;;;7.60;99.90;;;;;;5032983;28;20087;-52
2023/03/29 01:15:40;;;;;;;5.13;2.10;;;7.60;99.90;;;;;;5032529;28;20108;-49
2023/03/29 01:18:07;;;;;;;2.25;2.05;;;7.60;99.90;;;;;;5032697;28;20090;-50
2023/03/29 01:20:52;;;;;;;1.90;1.77;;;7.50;99.90;;;;;;5032575;28;20029;-53
2023/03/29 01:23:39;;;;;;;8.88;2.80;;;7.60;99.90;;;;;;5032762;28;20028;-49
2023/03/29 01:26:26;;;;;;;7.07;2.25;;;7.50;99.90;;;;;;5032954;28;20036;-51
2023/03/29 01:29:00;;;;;;;3.15;2.47;;;7.50;99.90;;;;;;5032694;28;20104;-52
2023/03/29 01:31:32;;;;;;;4.15;2.88;;;7.50;99.90;;;;;;5032760;28;20021;-51
2023/03/29 01:34:08;;;;;;;2.80;2.22;;;7.50;99.90;;;;;;5032939;28;20017;-55
2023/03/29 01:36:48;;;;;;;4.32;2.40;;;7.50;99.90;;;;;;5014834;28;20029;-52
2023/03/29 01:39:14;;;;;;;4.07;2.45;;;7.50;99.90;;;;;;5032724;28;20021;-54
2023/03/29 01:41:58;;;;;;;3.72;1.90;;;7.60;99.90;;;;;;5032489;28;20565;-49
2023/03/29 01:44:34;;;;;;;2.67;2.20;;;7.60;99.90;;;;;;5033612;28;20026;-54
2023/03/29 01:47:17;;;;;;;2.45;1.75;;;7.60;99.90;;;;;;5033262;28;20028;-55
2023/03/29 01:49:52;;;;;;;3.58;2.35;;;7.60;99.90;;;;;;5033825;28;20489;-50
2023/03/29 01:52:24;;;;;;;4.03;2.03;;;7.60;99.90;;;;;;5033656;28;20029;-53
2023/03/29 01:55:16;;;;;;;2.65;2.10;;;7.70;99.90;;;;;;5033285;28;20160;-53
2023/03/29 01:57:44;;;;;;;3.38;1.98;;;7.70;99.90;;;;;;5029883;28;20408;-51
2023/03/29 02:00:17;;;;;;;2.70;2.08;;;7.70;99.90;;;;;;5032580;28;20026;-54
2023/03/29 02:02:44;;;;;;;3.08;1.98;;;7.60;99.90;;;;;;5032324;28;20088;-52
2023/03/29 02:05:13;;;;;;;2.13;1.90;;;7.50;99.90;;;;;;5032382;28;20057;-53
2023/03/29 02:07:41;;;;;;;4.65;2.20;;;7.50;99.90;;;;;;5031807;28;20496;-56
2023/03/29 02:10:08;;;;;;;3.42;2.10;;;7.40;99.90;;;;;;5031922;28;20074;-51
2023/03/29 02:12:34;;;;;;;5.32;2.13;;;7.40;99.90;;;;;;5032229;28;20064;-52
2023/03/29 02:15:00;;;;;;;3.10;1.90;;;7.40;99.90;;;;;;5032067;28;20549;-54
2023/03/29 02:17:27;;;;;;;2.38;2.17;;;7.30;99.90;;;;;;5032380;28;20410;-50
2023/03/29 02:19:59;;;;;;;4.10;1.92;;;7.20;99.90;;;;;;5031915;28;20468;-52
2023/03/29 02:22:29;;;;;;;2.00;1.90;;;7.20;99.90;;;;;;5031658;28;20401;-50
2023/03/29 02:24:57;;;;;;;3.83;1.95;;;7.30;99.90;;;;;;5031605;28;20068;-54
2023/03/29 02:27:27;;;;;;;5.13;1.90;;;7.30;99.90;;;;;;5013690;28;20033;-51
2023/03/29 02:29:53;;;;;;;6.43;2.28;;;7.40;99.90;;;;;;5031655;28;20017;-53
2023/03/29 02:33:02;;;;;;;2.50;2.30;;;7.40;99.90;;;;;;5013623;28;20124;-52
2023/03/29 02:35:35;;;;;;;2.25;1.88;;;7.40;99.90;;;;;;5009229;28;20030;-53
2023/03/29 02:38:03;;;;;;;3.65;2.10;;;7.50;99.90;;;;;;5009544;28;20026;-51
2023/03/29 02:40:30;;;;;;;3.15;2.00;;;7.50;99.90;;;;;;5021289;28;20041;-53
2023/03/29 02:42:59;;;;;;;6.55;2.17;;;7.50;99.90;;;;;;5031367;28;20022;-54
2023/03/29 02:45:26;;;;;;;6.07;2.80;;;7.50;99.90;;;;;;5031410;28;20028;-49
2023/03/29 02:47:55;;;;;;;3.28;1.90;;;7.50;99.90;;;;;;5031203;28;20025;-53
2023/03/29 02:50:23;;;;;;;6.00;1.98;;;7.50;99.90;;;;;;5031254;28;20497;-54
2023/03/29 02:52:58;;;;;;;3.80;1.70;;;7.50;99.90;;;;;;5031049;28;20045;-51
2023/03/29 02:55:30;;;;;;;3.47;2.00;;;7.50;99.90;;;;;;5031053;28;20072;-54
2023/03/29 02:57:56;;;;;;;5.63;2.13;;;7.50;99.90;;;;;;5031193;28;20061;-49
2023/03/29 03:00:22;;;;;;;4.72;2.13;;;7.50;99.90;;;;;;5031280;28;20048;-56
2023/03/29 03:02:49;;;;;;;4.05;1.85;;;7.50;99.90;;;;;;5031083;28;20464;-55
2023/03/29 03:05:16;;;;;;;4.13;2.20;;;7.40;99.90;;;;;;5031072;28;20037;-51
2023/03/29 03:07:42;;;;;;;3.42;2.50;;;7.40;99.90;;;;;;5031094;28;20096;-51
2023/03/29 03:10:09;;;;;;;2.63;2.20;;;7.40;99.90;;;;;;5031013;28;20109;-51
2023/03/29 03:12:36;;;;;;;2.20;1.98;;;7.40;99.90;;;;;;5030966;28;20032;-51
2023/03/29 03:15:04;;;;;;;3.10;2.13;;;7.40;99.90;;;;;;5030901;28;20492;-52
2023/03/29 03:17:32;;;;;;;4.57;2.28;;;7.40;99.90;;;;;;5030525;28;20235;-53
2023/03/29 03:19:58;;;;;;;5.50;2.67;;;7.40;99.90;;;;;;5032393;28;20049;-49
2023/03/29 03:22:23;;;;;;;3.65;2.20;;;7.40;99.90;;;;;;5034716;28;20049;-54
2023/03/29 03:24:49;;;;;;;3.83;2.60;;;7.40;99.90;;;;;;5034803;28;20493;-54
2023/03/29 03:27:15;;;;;;;3.03;2.75;;;7.40;99.90;;;;;;5034740;28;20171;-53
2023/03/29 03:29:41;;;;;;;5.57;2.55;;;7.30;99.90;;;;;;5034954;28;20025;-51
2023/03/29 03:32:06;;;;;;;6.45;2.95;;;7.30;99.90;;;;;;5035010;28;20032;-56
2023/03/29 03:34:33;;;;;;;6.38;2.88;;;7.40;99.90;;;;;;5034495;28;20036;-52
2023/03/29 03:37:00;;;;;;;5.28;3.15;;;7.30;99.90;;;;;;5034394;28;20048;-53
2023/03/29 03:39:26;;;;;;;3.45;2.60;;;7.30;99.90;;;;;;5034453;28;20014;-56
2023/03/29 03:41:51;;;;;;;5.65;2.83;;;7.30;99.90;;;;;;5034644;28;20393;-51
2023/03/29 03:44:17;;;;;;;4.70;2.58;;;7.30;99.90;;;;;;5034491;28;20028;-51
2023/03/29 03:46:42;;;;;;;6.35;3.10;;;7.30;99.90;;;;;;5016672;28;20068;-49
2023/03/29 03:49:08;;;;;;;3.67;2.72;;;7.30;99.90;;;;;;5034351;28;20405;-54
2023/03/29 03:51:33;;;;;;;4.68;2.40;;;7.20;99.90;;;;;;5034306;28;20064;-51
2023/03/29 03:53:59;;;;;;;4.15;2.25;;;7.20;99.90;;;;;;5034099;28;20049;-50
2023/03/29 03:56:28;;;;;;;2.92;2.33;;;7.20;99.90;;;;;;5034035;28;20022;-51
2023/03/29 03:58:55;;;;;;;2.90;2.60;;;7.20;99.90;;;;;;5034034;28;20397;-51
2023/03/29 04:01:21;;;;;;;4.07;2.28;;;7.20;99.90;;;;;;5034091;28;20056;-51
2023/03/29 04:03:46;;;;;;;9.18;3.30;;;7.20;99.90;;;;;;5034094;28;20053;-54
2023/03/29 04:06:12;;;;;;;3.17;2.50;;;7.10;99.90;;;;;;5033988;28;20029;-51
2023/03/29 04:08:37;;;;;;;4.28;2.75;;;7.10;99.90;;;;;;5016167;28;20445;-52
2023/03/29 04:11:03;;;;;;;6.45;3.15;;;7.10;99.90;;;;;;5033902;28;20390;-51
2023/03/29 04:13:29;;;;;;;6.07;2.78;;;7.10;99.90;;;;;;5033917;28;20456;-53
2023/03/29 04:15:55;;;;;;;4.50;2.60;;;7.10;99.90;;;;;;5033745;28;20646;-50
2023/03/29 04:18:25;;;;;;;6.93;3.30;;;7.10;99.90;;;;;;5033841;28;20044;-55
2023/03/29 04:20:50;;;;;;;4.35;3.20;;;7.10;99.90;;;;;;5033669;28;20477;-51
2023/03/29 04:23:16;;;;;;;5.47;3.08;;;7.10;99.90;;;;;;5016004;28;20029;-50
2023/03/29 04:25:42;;;;;;;5.90;3.17;;;7.10;99.90;;;;;;5033702;28;20025;-56
2023/03/29 04:28:09;;;;;;;5.53;3.33;;;7.10;99.90;;;;;;5033770;28;20026;-56
2023/03/29 04:30:35;;;;;;;5.93;3.05;;;7.10;99.90;;;;;;5033666;28;20025;-52
2023/03/29 04:33:00;;;;;;;8.10;3.25;;;7.10;99.90;;;;;;5032930;28;20390;-54
2023/03/29 04:35:26;;;;;;;5.25;2.92;;;7.10;99.90;;;;;;5033503;28;20036;-55
2023/03/29 04:37:53;;;;;;;8.10;3.60;;;7.10;99.90;;;;;;5033326;28;20489;-53
2023/03/29 04:40:19;;;;;;;9.57;2.70;;;7.10;99.90;;;;;;5033186;28;20028;-52
2023/03/29 04:42:46;;;;;;;5.47;2.85;;;7.10;99.90;;;;;;5033263;28;20096;-50
2023/03/29 04:45:13;;;;;;;5.97;3.38;;;7.10;99.90;;;;;;5015726;28;20079;-53
2023/03/29 04:47:39;;;;;;;10.93;3.90;;;7.20;99.90;;;;;;5033249;28;20498;-56
2023/03/29 04:50:07;;;;;;;4.47;3.33;;;7.20;99.90;;;;;;5015426;28;20030;-54
2023/03/29 04:52:32;;;;;;;3.92;3.53;;;7.10;99.90;;;;;;5033122;28;20344;-55
2023/03/29 04:55:00;;;;;;;4.15;3.28;;;7.10;99.90;;;;;;5032861;28;20064;-52
2023/03/29 04:57:26;;;;;;;5.57;3.42;;;7.00;99.90;;;;;;5033047;28;20029;-51
2023/03/29 04:59:51;;;;;;;12.20;4.00;;;7.10;99.90;;;;;;5033053;28;20026;-50
2023/03/29 05:02:17;;;;;;;9.07;3.33;;;7.10;99.90;;;;;;5032906;28;20028;-54
2023/03/29 05:04:42;;;;;;;7.00;4.25;;;7.00;99.90;;;;;;5032803;28;20030;-53
2023/03/29 05:07:08;;;;;;;5.53;2.90;;;7.00;99.90;;;;;;5032784;28;20037;-53
2023/03/29 05:09:34;;;;;;;6.95;3.78;;;7.00;99.90;;;;;;5032933;28;20025;-54
2023/03/29 05:12:00;;;;;;;9.80;3.70;;;7.00;99.90;;;;;;5032648;28;20021;-54
2023/03/29 05:14:25;;;;;;;6.72;3.50;;;7.00;99.90;;;;;;5032572;28;20033;-50
2023/03/29 05:16:51;;;;;;;4.28;3.40;;;7.00;99.90;;;;;;5032579;28;20021;-55
2023/03/29 05:19:17;;;;;;;5.75;3.85;;;6.90;99.90;;;;;;5014798;28;20448;-54
2023/03/29 05:21:43;;;;;;;5.55;3.72;;;6.90;99.90;;;;;;5032573;28;20079;-51
2023/03/29 05:24:09;;;;;;;5.30;3.15;;;7.00;99.90;;;;;;5032772;28;20029;-52
2023/03/29 05:26:35;;;;;;;4.95;3.28;;;7.00;99.90;;;;;;5032757;28;20025;-53
2023/03/29 05:29:00;;;;;;;8.27;4.20;;;7.00;99.90;;;;;;5032581;28;20025;-51
2023/03/29 05:31:27;;;;;;;10.30;5.03;;;7.00;99.90;;;;;;5032319;28;20029;-54
2023/03/29 05:33:52;;;;;;;10.82;4.85;;;7.10;99.90;;;;;;5032443;28;20021;-49
2023/03/29 05:36:18;;;;;;;9.75;4.43;;;7.10;99.90;;;;;;5032273;28;20036;-52
2023/03/29 05:38:45;;;;;;;10.70;4.55;;;7.20;99.90;;;;;;5032409;28;20464;-51
2023/03/29 05:41:12;;;;;;;19.05;4.57;;;7.20;99.90;;;;;;5032761;28;20014;-51
2023/03/29 05:43:37;;;;;;;4.95;3.78;;;7.20;99.90;;;;;;5032060;28;20056;-48
2023/03/29 05:46:05;;;;;;;6.20;4.03;;;7.10;99.90;;;;;;5032807;28;20061;-49
2023/03/29 05:48:30;;;;;;;5.85;4.28;;;7.10;99.90;;;;;;5032696;28;20017;-49
2023/03/29 05:50:56;;;;;;;5.45;3.55;;;7.20;99.90;;;;;;5032669;28;20021;-52
2023/03/29 05:53:24;;;;;;;7.45;4.40;;;7.20;99.90;;;;;;5015100;28;20029;-50
2023/03/29 05:55:50;;;;;;;8.00;4.10;;;7.30;99.90;;;;;;5032324;28;20033;-56
2023/03/29 05:58:17;;;;;;;4.97;3.88;;;7.40;99.90;;;;;;5031894;28;20045;-52
2023/03/29 06:00:43;;;;;;;8.35;4.50;;;7.30;99.90;;;;;;5032112;28;20047;-56
2023/03/29 06:03:17;;;;;;;7.50;4.13;;;7.30;99.90;;;;;;5031932;28;20053;-53
2023/03/29 06:05:45;;;;;;;7.90;4.65;;;7.40;99.90;;;;;;5032246;28;20021;-51
2023/03/29 06:08:11;;;;;;;5.53;4.18;;;7.40;99.90;;;;;;5031972;28;20029;-50
2023/03/29 06:10:37;;;;;;;8.57;4.25;;;7.40;99.90;;;;;;5031740;28;20029;-50
2023/03/29 06:13:03;;;;;;;4.65;3.85;;;7.50;99.90;;;;;;5031802;28;20516;-49
2023/03/29 06:15:28;;;;;;;9.35;4.80;;;7.60;99.90;;;;;;5031666;28;20065;-49
2023/03/29 06:17:54;;;;;;;5.93;4.10;;;7.70;99.90;;;;;;5031675;28;20481;-51
2023/03/29 06:20:20;;;;;;;4.82;3.83;;;7.70;99.90;;;;;;5031787;28;20029;-55
2023/03/29 06:22:46;;;;;;;6.70;4.53;;;7.80;99.90;;;;;;5031571;28;20034;-52
2023/03/29 06:25:14;;;;;;;5.68;4.07;;;7.90;99.90;;;;;;5031589;28;20022;-53
2023/03/29 06:27:40;;;;;;;9.48;4.20;;;7.90;99.90;;;;;;5013863;28;20049;-52
2023/03/29 06:30:06;;;;;;;10.07;4.32;;;8.00;99.90;;;;;;5031770;28;20099;-54
2023/03/29 06:32:33;;;;;;;5.93;4.38;;;8.00;99.90;;;;;;5031597;28;20041;-49
2023/03/29 06:34:59;;;;;;;8.50;4.60;;;8.00;99.90;;;;;;5031510;28;20040;-54
2023/03/29 06:37:24;;;;;;;5.13;3.97;;;8.00;99.90;;;;;;5031389;28;20025;-50
2023/03/29 06:39:51;;;;;;;5.70;4.43;;;8.00;99.90;;;;;;5031010;28;20065;-53
2023/03/29 06:42:18;;;;;;;5.57;4.63;;;8.00;99.90;;;;;;5031283;28;20063;-53
2023/03/29 06:44:45;;;;;;;8.45;5.05;;;7.90;99.90;;;;;;5013684;28;20028;-51
2023/03/29 06:47:12;;;;;;;7.78;4.45;;;8.00;99.90;;;;;;5031338;28;20052;-48
2023/03/29 06:49:38;;;;;;;9.23;3.95;;;8.00;99.90;;;;;;5031489;28;20440;-52
2023/03/29 06:52:04;;;;;;;5.63;4.57;;;8.00;99.90;;;;;;5031141;28;20160;-51
2023/03/29 06:54:29;;;;;;;6.78;3.83;;;8.00;99.90;;;;;;5031567;28;20056;-54
2023/03/29 06:56:56;;;;;;;5.60;3.97;;;8.00;99.90;;;;;;5035327;28;20029;-56
2023/03/29 06:59:22;;;;;;;6.25;3.83;;;8.10;99.90;;;;;;5035526;28;20025;-55
2023/03/29 07:01:47;;;;;;;8.70;4.07;;;8.00;99.90;;;;;;5035193;28;20501;-52
2023/03/29 07:04:13;;;;;;;7.47;4.32;;;8.00;99.90;;;;;;5035214;28;20374;-53
2023/03/29 07:06:39;;;;;;;4.43;4.03;;;8.00;99.90;;;;;;5035124;28;20565;-54
2023/03/29 07:09:05;;;;;;;6.60;3.85;;;8.10;99.90;;;;;;5035019;28;20076;-54
2023/03/29 07:11:34;;;;;;;5.00;3.90;;;8.10;99.90;;;;;;5035092;28;20087;-52
2023/03/29 07:13:59;;;;;;;6.45;4.15;;;8.10;99.90;;;;;;5035010;28;20021;-54
2023/03/29 07:16:26;;;;;;;5.80;4.50;;;8.20;99.90;;;;;;5034886;28;20033;-51
2023/03/29 07:18:51;;;;;;;7.32;4.05;;;8.20;99.90;;;;;;5034994;28;20028;-54
2023/03/29 07:21:17;;;;;;;6.57;4.65;;;8.20;99.90;;;;;;5034690;28;20025;-55
2023/03/29 07:23:42;;;;;;;7.28;4.45;;;8.20;99.90;;;;;;5034888;28;20485;-54
2023/03/29 07:26:09;;;;;;;4.35;3.95;;;8.20;99.90;;;;;;5034938;28;20112;-54
2023/03/29 07:28:36;;;;;;;6.55;3.72;;;8.30;99.90;;;;;;5034705;28;20025;-54
2023/03/29 07:31:10;;;;;;;7.53;3.70;;;8.40;99.90;;;;;;5034681;28;20024;-53
2023/03/29 07:33:37;;;;;;;4.63;3.75;;;8.40;99.90;;;;;;5033719;28;20053;-51
2023/03/29 07:36:04;;;;;;;5.90;4.45;;;8.50;99.90;;;;;;5033590;28;20112;-53
2023/03/29 07:38:31;;;;;;;5.15;3.30;;;8.60;99.90;;;;;;5034400;28;20048;-52
2023/03/29 07:40:57;;;;;;;6.32;4.82;;;8.60;99.90;;;;;;5034391;28;20037;-55
2023/03/29 07:43:23;;;;;;;5.72;3.30;;;8.70;99.90;;;;;;5034457;28;20500;-54
2023/03/29 07:45:50;;;;;;;3.67;3.05;;;8.80;99.90;;;;;;5034191;28;20044;-51
2023/03/29 07:48:16;;;;;;;6.20;2.95;;;8.90;99.90;;;;;;5034364;28;20041;-51
2023/03/29 07:50:43;;;;;;;8.15;3.03;;;9.00;99.90;;;;;;5034222;28;20077;-49
2023/03/29 07:53:09;;;;;;;5.88;3.47;;;9.10;99.90;;;;;;5034320;28;20104;-53
2023/03/29 07:55:34;;;;;;;3.60;3.00;;;9.00;99.90;;;;;;5034320;28;20116;-52
2023/03/29 07:58:00;;;;;;;6.63;3.78;;;9.20;99.90;;;;;;5034496;28;20024;-54
2023/03/29 08:00:27;;;;;;;3.75;3.05;;;9.30;99.90;;;;;;5034679;28;20021;-54
2023/03/29 08:02:52;;;;;;;3.63;2.97;;;9.30;99.90;;;;;;5034189;28;20092;-51
2023/03/29 08:05:20;;;;;;;6.18;2.92;;;9.60;99.90;;;;;;5032371;28;20087;-52
2023/03/29 08:07:47;;;;;;;3.13;2.83;;;9.40;99.90;;;;;;5032555;28;20397;-51
2023/03/29 08:10:15;;;;;;;7.35;3.03;;;9.40;99.90;;;;;;5034102;28;20025;-51
2023/03/29 08:12:42;;;;;;;5.85;3.45;;;9.40;99.90;;;;;;5033976;28;20032;-52
2023/03/29 08:15:08;;;;;;;4.57;3.20;;;9.50;99.90;;;;;;5034308;28;20651;-55
2023/03/29 08:17:35;;;;;;;7.75;3.70;;;9.60;99.90;;;;;;5033936;28;20025;-53
2023/03/29 08:20:01;;;;;;;13.52;4.10;;;9.60;99.90;;;;;;5033950;28;20087;-55
2023/03/29 08:22:27;;;;;;;4.72;3.17;;;9.60;99.90;;;;;;5034035;28;20504;-54
2023/03/29 08:24:53;;;;;;;3.42;3.13;;;9.70;99.90;;;;;;5033864;28;20022;-54
2023/03/29 08:27:18;;;;;;;4.10;3.10;;;9.80;99.90;;;;;;5033783;28;20036;-54
2023/03/29 08:29:44;;;;;;;5.07;3.35;;;9.90;99.90;;;;;;5033966;28;20029;-52
2023/03/29 08:32:10;;;;;;;3.65;3.28;;;10.00;99.90;;;;;;5033398;28;20018;-53
2023/03/29 08:34:35;;;;;;;6.53;3.47;;;10.10;99.90;;;;;;5038189;28;20480;-52
2023/03/29 08:37:03;;;;;;;3.30;2.88;;;10.10;99.90;;;;;;5033703;28;20024;-57
2023/03/29 08:39:29;;;;;;;5.80;2.72;;;10.30;99.90;;;;;;5033809;28;20033;-54
2023/03/29 08:42:26;;;;;;;4.70;3.15;;;10.50;99.90;;;;;;5033297;28;20505;-53
2023/03/29 08:45:28;;;;;;;6.40;3.20;;;10.70;99.90;;;;;;5033179;28;20401;-52
2023/03/29 08:47:57;;;;;;;9.20;3.20;;;10.80;99.90;;;;;;5029916;28;20108;-49
2023/03/29 08:50:31;;;;;;;4.15;3.20;;;11.00;99.90;;;;;;5018285;28;20168;-50
2023/03/29 08:53:04;;;;;;;10.82;4.20;;;11.10;99.90;;;;;;5053279;28;20066;-50
2023/03/29 08:55:39;;;;;;;5.90;2.80;;;11.00;99.90;;;;;;5053124;28;20068;-55
2023/03/29 08:58:11;;;;;;;6.93;3.73;;;11.10;99.90;;;;;;5038239;28;20029;-53
2023/03/29 09:00:44;;;;;;;6.43;3.65;;;11.10;99.90;;;;;;5016300;28;20029;-54
2023/03/29 09:03:32;;;;;;;4.93;3.28;;;11.00;99.90;;;;;;5031607;28;20028;-50
2023/03/29 09:06:04;;;;;;;6.65;4.15;;;10.90;99.90;;;;;;5026221;28;20030;-53
2023/03/29 09:08:30;;;;;;;7.35;3.90;;;10.80;99.90;;;;;;5023356;28;20024;-50
2023/03/29 09:11:26;;;;;;;5.18;3.75;;;10.80;99.90;;;;;;5032795;28;20025;-56
2023/03/29 09:14:00;;;;;;;5.88;3.67;;;10.70;99.90;;;;;;5032807;28;20099;-54
2023/03/29 09:16:36;;;;;;;4.15;3.45;;;10.60;99.90;;;;;;5032671;28;20025;-52
2023/03/29 09:19:37;;;;;;;3.78;3.15;;;10.60;99.90;;;;;;5029940;28;20022;-53
2023/03/29 09:22:15;;;;;;;7.55;3.42;;;10.70;99.90;;;;;;5022321;28;20030;-51
2023/03/29 09:24:55;;;;;;;5.63;4.03;;;10.70;99.90;;;;;;5032813;28;20147;-52
2023/03/29 09:27:43;;;;;;;5.88;3.58;;;10.70;99.90;;;;;;5031504;28;20030;-54
2023/03/29 09:30:25;;;;;;;12.38;4.95;;;10.60;99.90;;;;;;5032790;28;20030;-55
2023/03/29 09:33:09;;;;;;;5.53;3.92;;;10.50;99.90;;;;;;5032730;28;20029;-51
2023/03/29 09:36:10;;;;;;;5.75;4.15;;;10.50;99.90;;;;;;5014885;28;20069;-54
2023/03/29 09:38:43;;;;;;;4.35;3.42;;;10.50;99.90;;;;;;5025108;28;20549;-51
2023/03/29 09:41:40;;;;;;;4.40;3.33;;;10.50;99.90;;;;;;5014694;28;20039;-52
2023/03/29 09:44:08;;;;;;;5.25;3.28;;;10.60;99.90;;;;;;5032294;28;20063;-51
2023/03/29 09:46:50;;;;;;;19.90;12.88;;;10.70;99.90;;;;;;5031219;28;20029;-55
2023/03/29 09:49:22;;;;;;;138.63;77.60;;;10.90;99.90;;;;;;5031672;28;20493;-51
2023/03/29 09:51:49;;;;;;;7.82;5.15;;;11.10;99.90;;;;;;5031875;28;20025;-49
2023/03/29 09:54:14;;;;;;;3.90;3.60;;;11.40;99.90;;;;;;5030850;28;20022;-51
2023/03/29 09:56:40;;;;;;;7.00;4.00;;;11.50;99.90;;;;;;5031257;28;20128;-55
2023/03/29 09:59:09;;;;;;;5.90;3.40;;;11.50;99.90;;;;;;5031695;28;20025;-55
2023/03/29 10:01:45;;;;;;;4.63;3.63;;;11.50;99.90;;;;;;5032014;28;20083;-55
2023/03/29 10:04:11;;;;;;;8.45;4.05;;;11.50;99.90;;;;;;5032081;28;20547;-52
2023/03/29 10:06:43;;;;;;;5.85;3.53;;;11.50;99.90;;;;;;5031948;28;20029;-55
2023/03/29 10:09:16;;;;;;;6.65;3.83;;;11.50;99.90;;;;;;5032086;28;20420;-48
2023/03/29 10:11:46;;;;;;;5.65;3.75;;;11.60;99.90;;;;;;5014238;28;20027;-53
2023/03/29 10:14:17;;;;;;;8.73;4.00;;;11.50;99.90;;;;;;5031703;28;20033;-49
2023/03/29 10:16:44;;;;;;;4.68;3.60;;;11.50;99.90;;;;;;5031859;28;20034;-54
2023/03/29 10:19:33;;;;;;;5.93;3.45;;;11.40;99.90;;;;;;5031747;28;20159;-50
2023/03/29 10:22:23;;;;;;;6.45;3.85;;;11.50;99.90;;;;;;5031307;28;20049;-49
2023/03/29 10:24:51;;;;;;;4.55;3.70;;;11.60;99.90;;;;;;5019454;28;20045;-52
2023/03/29 10:27:29;;;;;;;4.57;3.45;;;11.70;99.90;;;;;;5031282;28;20022;-51
2023/03/29 10:29:58;;;;;;;6.28;3.65;;;11.80;99.90;;;;;;5030863;28;20053;-48
2023/03/29 10:32:35;;;;;;;9.98;4.20;;;11.90;99.90;;;;;;5029754;28;20072;-53
2023/03/29 10:35:23;;;;;;;5.65;3.75;;;12.00;99.90;;;;;;5029543;28;20045;-49
2023/03/29 10:37:51;;;;;;;8.02;3.72;;;12.30;99.90;;;;;;5017835;28;20460;-48
2023/03/29 10:40:29;;;;;;;5.63;3.70;;;12.50;99.90;;;;;;5030586;28;20109;-45
2023/03/29 10:42:59;;;;;;;4.38;3.72;;;12.60;99.90;;;;;;5031132;28;20087;-49
2023/03/29 10:45:30;;;;;;;7.72;5.00;;;12.80;99.90;;;;;;5032024;28;20059;-46
2023/03/29 10:47:57;;;;;;;9.27;6.25;;;12.90;99.90;;;;;;5034173;28;20048;-51
2023/03/29 10:50:23;;;;;;;4.80;3.45;;;13.10;99.90;;;;;;5035359;28;20060;-48
2023/03/29 10:52:49;;;;;;;4.30;3.85;;;13.10;99.90;;;;;;5037447;28;20026;-49
2023/03/29 10:55:15;;;;;;;5.13;3.25;;;13.10;99.90;;;;;;5034308;28;20044;-49
2023/03/29 10:58:06;;;;;;;11.95;3.70;;;13.20;99.90;;;;;;5034155;28;20036;-46
2023/03/29 11:00:46;;;;;;;5.80;3.78;;;13.30;99.90;;;;;;5031019;28;20033;-49
2023/03/29 11:03:33;;;;;;;7.95;4.20;;;13.40;99.90;;;;;;5031263;28;20032;-46
2023/03/29 11:06:21;;;;;;;5.88;4.38;;;13.70;99.90;;;;;;5031493;28;20025;-46
2023/03/29 11:09:00;;;;;;;4.80;3.50;;;13.90;99.90;;;;;;5031348;28;20033;-47
2023/03/29 11:11:40;;;;;;;4.95;3.63;;;14.10;99.90;;;;;;5031768;28;20026;-47
2023/03/29 11:14:20;;;;;;;7.57;3.72;;;14.20;99.90;;;;;;5031742;28;20032;-50
2023/03/29 11:17:06;;;;;;;4.93;3.63;;;14.40;99.90;;;;;;5031290;28;20025;-47
2023/03/29 11:19:51;;;;;;;4.40;4.00;;;14.40;99.90;;;;;;5013701;28;20021;-46
2023/03/29 11:22:37;;;;;;;3.67;3.33;;;14.50;99.90;;;;;;5031399;28;20026;-48
2023/03/29 11:25:10;;;;;;;6.55;3.80;;;14.50;99.90;;;;;;5031600;28;20100;-48
2023/03/29 11:27:55;;;;;;;6.95;4.65;;;14.70;99.90;;;;;;5031198;28;20021;-52
2023/03/29 11:30:53;;;;;;;4.05;3.22;;;14.90;99.90;;;;;;5030950;28;20025;-50
2023/03/29 11:34:00;;;;;;;4.28;3.00;;;15.00;99.90;;;;;;5031036;28;20032;-50
2023/03/29 11:36:50;;;;;;;6.28;3.47;;;15.00;99.90;;;;;;5030871;28;20034;-53
2023/03/29 11:39:41;;;;;;;4.00;3.25;;;14.90;99.90;;;;;;5032288;28;20024;-49
2023/03/29 11:42:17;;;;;;;3.70;3.40;;;15.00;99.90;;;;;;5033482;28;20053;-45
2023/03/29 11:44:43;;;;;;;;;;;14.90;99.90;;;;;;5034968;28;20021;-47
2023/03/29 11:47:14;;;;;;;4.07;3.42;;;14.90;99.90;;;;;;5034726;28;19905;-50
2023/03/29 11:50:02;;;;;;;4.80;3.33;;;14.80;99.90;;;;;;5034509;28;20080;-47
2023/03/29 11:52:27;;;;;;;5.85;3.30;;;14.90;99.90;;;;;;5034861;28;20030;-46
2023/03/29 11:55:12;;;;;;;6.78;3.90;;;15.00;99.90;;;;;;5041726;22;20049;-42
2023/03/29 11:57:40;;;;;;;5.95;4.25;;;15.10;99.90;;;;;;5014176;28;20104;-43
2023/03/29 12:00:14;;;;;;;9.65;3.90;;;15.20;99.90;;;;;;5014424;28;20058;-44
2023/03/29 12:03:01;;;;;;;3.87;3.37;;;15.20;99.90;;;;;;5014362;28;20109;-39
2023/03/29 12:05:41;;;;;;;6.60;3.75;;;15.20;99.90;;;;;;5014039;28;20647;-46
2023/03/29 12:08:12;;;;;;;5.50;3.28;;;15.20;99.90;;;;;;5014439;28;20026;-42
2023/03/29 12:10:42;;;;;;;4.47;3.15;;;15.10;99.90;;;;;;4996559;28;20033;-46
2023/03/29 12:13:18;;;;;;;5.50;3.55;;;15.20;99.90;;;;;;5014203;28;20029;-45
2023/03/29 12:16:11;;;;;;;6.05;3.13;;;15.20;99.90;;;;;;5013977;28;20157;-42
2023/03/29 12:18:44;;;;;;;6.63;3.47;;;15.10;99.90;;;;;;5014159;28;20093;-45
2023/03/29 12:21:22;;;;;;;6.22;3.17;;;15.00;99.90;;;;;;5014489;28;20014;-46
2023/03/29 12:23:49;;;;;;;7.05;4.68;;;15.00;99.90;;;;;;5012784;28;20049;-50
2023/03/29 12:26:42;;;;;;;10.20;6.90;;;14.90;99.90;;;;;;5013303;28;20398;-43
2023/03/29 12:29:19;;;;;;;4.47;3.20;;;14.90;99.90;;;;;;5013887;28;20033;-42
2023/03/29 12:32:25;;;;;;;5.63;3.42;;;14.80;99.90;;;;;;5013548;28;20084;-43
2023/03/29 12:35:22;;;;;;;5.00;3.28;;;14.80;99.90;;;;;;5013542;28;20049;-48
2023/03/29 12:38:13;;;;;;;6.60;2.90;;;14.80;99.90;;;;;;5013823;28;20033;-45
2023/03/29 12:40:42;;;;;;;5.63;3.67;;;14.70;99.90;;;;;;5013553;28;20029;-43
2023/03/29 12:43:18;;;;;;;7.13;3.40;;;14.60;99.90;;;;;;5013570;28;20159;-47
2023/03/29 12:45:49;;;;;;;5.28;3.60;;;14.60;99.90;;;;;;5013995;28;20105;-44
2023/03/29 12:48:22;;;;;;;5.80;3.40;;;14.60;99.90;;;;;;5013898;28;20033;-43
2023/03/29 12:51:03;;;;;;;7.28;4.03;;;14.50;99.90;;;;;;4996272;28;20029;-48
2023/03/29 12:53:34;;;;;;;8.50;4.18;;;14.50;99.90;;;;;;5013157;28;20398;-47
2023/03/29 12:56:02;;;;;;;6.88;4.28;;;14.50;99.90;;;;;;5013009;28;20038;-46
2023/03/29 12:58:49;;;;;;;7.55;3.75;;;14.50;99.90;;;;;;5013245;28;20101;-44
2023/03/29 13:01:30;;;;;;;5.80;3.33;;;14.70;99.90;;;;;;5013265;28;20056;-43
2023/03/29 13:03:59;;;;;;;4.57;3.42;;;14.80;99.90;;;;;;5013432;28;20021;-46
2023/03/29 13:06:33;;;;;;;6.07;4.00;;;15.10;99.90;;;;;;5013259;28;20030;-47
2023/03/29 13:09:18;;;;;;;9.15;4.38;;;15.30;99.90;;;;;;5013174;28;20030;-47
2023/03/29 13:11:50;;;;;;;;;;;15.50;99.90;;;;;;5013991;28;20028;-43
2023/03/29 13:14:19;;;;;;;7.40;3.33;;;15.50;99.90;;;;;;5013274;28;20415;-45